createdAt,value
2022-09-23T00:00:08.814Z,17.18
2022-09-23T00:02:35.333Z,17.21
2022-09-23T00:05:01.779Z,17.23
2022-09-23T00:07:28.360Z,17.23
2022-09-23T00:09:54.883Z,17.23
2022-09-23T00:12:21.710Z,17.21
2022-09-23T00:14:48.242Z,17.22
2022-09-23T00:17:14.724Z,17.22
2022-09-23T00:19:41.308Z,17.22
2022-09-23T00:22:07.766Z,17.20
2022-09-23T00:24:34.260Z,17.19
2022-09-23T00:27:00.762Z,17.16
2022-09-23T00:29:27.279Z,17.14
2022-09-23T00:31:53.697Z,17.13
2022-09-23T00:34:20.115Z,17.09
2022-09-23T00:36:46.537Z,17.02
2022-09-23T00:39:12.996Z,16.99
2022-09-23T00:41:39.826Z,16.97
2022-09-23T00:44:43.895Z,16.92
2022-09-23T00:47:19.524Z,16.88
2022-09-23T00:49:52.419Z,16.77
2022-09-23T00:52:23.104Z,16.77
2022-09-23T00:54:52.747Z,16.65
2022-09-23T00:57:19.619Z,16.72
2022-09-23T00:59:47.819Z,16.67
2022-09-23T01:02:15.337Z,16.67
2022-09-23T01:04:42.559Z,16.64
2022-09-23T01:07:09.025Z,16.61
2022-09-23T01:09:36.239Z,16.59
2022-09-23T01:12:47.030Z,16.54
2022-09-23T01:15:34.676Z,16.52
2022-09-23T01:18:27.343Z,16.50
2022-09-23T01:21:15.737Z,16.38
2022-09-23T01:24:19.534Z,16.43
2022-09-23T01:27:00.513Z,16.42
2022-09-23T01:29:58.804Z,16.40
2022-09-23T01:32:40.341Z,16.38
2022-09-23T01:35:09.837Z,16.37
2022-09-23T01:37:51.057Z,16.25
2022-09-23T01:40:35.017Z,16.34
2022-09-23T01:43:09.866Z,16.30
2022-09-23T01:45:40.939Z,16.20
2022-09-23T01:48:22.713Z,16.29
2022-09-23T01:51:22.656Z,16.27
2022-09-23T01:54:20.796Z,16.25
2022-09-23T01:57:12.003Z,16.25
2022-09-23T01:59:43.088Z,16.16
2022-09-23T02:02:15.906Z,16.21
2022-09-23T02:04:42.296Z,16.23
2022-09-23T02:07:34.777Z,16.10
2022-09-23T02:10:10.685Z,16.20
2022-09-23T02:12:40.698Z,16.20
2022-09-23T02:15:14.513Z,16.08
2022-09-23T02:17:54.679Z,16.16
2022-09-23T02:20:39.383Z,16.17
2022-09-23T02:23:11.613Z,16.19
2022-09-23T02:26:00.869Z,16.16
2022-09-23T02:28:35.359Z,16.09
2022-09-23T02:31:11.883Z,16.08
2022-09-23T02:34:04.304Z,16.17
2022-09-23T02:36:54.241Z,16.09
2022-09-23T02:39:29.556Z,16.09
2022-09-23T02:42:04.396Z,16.18
2022-09-23T02:44:31.254Z,16.15
2022-09-23T02:46:57.764Z,16.14
2022-09-23T02:49:28.422Z,16.11
2022-09-23T02:51:57.127Z,16.08
2022-09-23T02:54:28.578Z,16.05
2022-09-23T02:56:55.358Z,16.02
2022-09-23T02:59:23.543Z,16.01
2022-09-23T03:02:21.749Z,15.99
2022-09-23T03:05:08.514Z,15.97
2022-09-23T03:08:02.956Z,15.96
2022-09-23T03:10:48.185Z,15.94
2022-09-23T03:13:48.348Z,15.81
2022-09-23T03:16:24.480Z,15.93
2022-09-23T03:19:12.599Z,15.90
2022-09-23T03:21:46.420Z,15.88
2022-09-23T03:24:14.612Z,15.88
2022-09-23T03:26:45.481Z,15.83
2022-09-23T03:29:13.719Z,15.86
2022-09-23T03:31:40.759Z,15.83
2022-09-23T03:34:22.538Z,15.81
2022-09-23T03:36:58.032Z,15.81
2022-09-23T03:39:27.602Z,15.85
2022-09-23T03:41:58.779Z,15.83
2022-09-23T03:44:25.317Z,15.84
2022-09-23T03:46:51.727Z,15.84
2022-09-23T03:49:25.518Z,15.78
2022-09-23T03:51:51.970Z,15.85
2022-09-23T03:54:18.380Z,15.85
2022-09-23T03:56:44.892Z,15.84
2022-09-23T03:59:11.327Z,15.83
2022-09-23T04:01:37.879Z,15.85
2022-09-23T04:04:04.336Z,15.85
2022-09-23T04:06:30.804Z,15.84
2022-09-23T04:08:58.662Z,15.84
2022-09-23T04:11:25.176Z,15.86
2022-09-23T04:13:51.620Z,15.89
2022-09-23T04:16:18.155Z,15.88
2022-09-23T04:18:44.603Z,15.90
2022-09-23T04:21:11.186Z,15.90
2022-09-23T04:23:37.647Z,15.89
2022-09-23T04:26:05.551Z,15.89
2022-09-23T04:28:32.129Z,15.89
2022-09-23T04:30:59.152Z,15.90
2022-09-23T04:33:25.705Z,15.91
2022-09-23T04:35:52.187Z,15.94
2022-09-23T04:38:19.497Z,15.94
2022-09-23T04:40:46.040Z,15.97
2022-09-23T04:43:13.643Z,15.96
2022-09-23T04:45:40.141Z,15.95
2022-09-23T04:48:06.612Z,15.94
2022-09-23T04:50:33.473Z,15.92
2022-09-23T04:52:59.927Z,15.93
2022-09-23T04:55:26.380Z,15.89
2022-09-23T04:57:52.797Z,15.93
2022-09-23T05:00:19.416Z,15.92
2022-09-23T05:02:47.962Z,15.93
2022-09-23T05:05:15.759Z,15.94
2022-09-23T05:07:42.206Z,15.95
2022-09-23T05:10:08.755Z,15.96
2022-09-23T05:12:35.187Z,15.98
2022-09-23T05:15:01.621Z,15.99
2022-09-23T05:17:28.427Z,15.98
2022-09-23T05:19:54.884Z,15.98
2022-09-23T05:22:21.286Z,15.98
2022-09-23T05:24:47.764Z,15.95
2022-09-23T05:27:14.181Z,15.98
2022-09-23T05:29:40.646Z,15.99
2022-09-23T05:32:07.100Z,15.98
2022-09-23T05:34:33.561Z,15.99
2022-09-23T05:37:00.133Z,16.00
2022-09-23T05:39:26.565Z,16.00
2022-09-23T05:41:53.005Z,16.05
2022-09-23T05:44:19.471Z,16.06
2022-09-23T05:46:45.954Z,16.07
2022-09-23T05:49:12.440Z,16.08
2022-09-23T05:51:39.083Z,16.07
2022-09-23T05:54:05.717Z,16.10
2022-09-23T05:56:33.666Z,16.11
2022-09-23T05:59:01.555Z,16.13
2022-09-23T06:01:31.749Z,16.07
2022-09-23T06:03:59.180Z,16.14
2022-09-23T06:06:31.610Z,16.08
2022-09-23T06:08:58.950Z,16.15
2022-09-23T06:11:25.870Z,16.11
2022-09-23T06:13:56.921Z,16.15
2022-09-23T06:16:23.484Z,16.15
2022-09-23T06:18:49.945Z,16.16
2022-09-23T06:21:17.701Z,16.14
2022-09-23T06:23:44.859Z,16.16
2022-09-23T06:26:16.115Z,15.99
2022-09-23T06:28:44.365Z,16.18
2022-09-23T06:31:14.101Z,16.17
2022-09-23T06:33:45.455Z,16.19
2022-09-23T06:36:17.665Z,16.22
2022-09-23T06:38:46.311Z,16.20
2022-09-23T06:41:12.763Z,16.24
2022-09-23T06:43:39.482Z,16.24
2022-09-23T06:46:07.142Z,16.24
2022-09-23T06:48:34.448Z,16.25
2022-09-23T06:51:03.187Z,16.26
2022-09-23T06:53:29.922Z,16.27
2022-09-23T06:56:05.906Z,16.21
2022-09-23T06:58:34.218Z,16.29
2022-09-23T07:01:06.202Z,16.25
2022-09-23T07:03:33.634Z,16.26
2022-09-23T07:06:00.528Z,16.31
2022-09-23T07:08:28.548Z,16.31
2022-09-23T07:10:57.390Z,16.22
2022-09-23T07:13:24.319Z,16.32
2022-09-23T07:15:55.561Z,16.31
2022-09-23T07:18:22.671Z,16.33
2022-09-23T07:20:50.640Z,16.34
2022-09-23T07:23:17.241Z,16.30
2022-09-23T07:25:44.873Z,16.32
2022-09-23T07:28:11.340Z,16.31
2022-09-23T07:30:43.907Z,16.30
2022-09-23T07:33:29.736Z,16.27
2022-09-23T07:35:57.838Z,16.26
2022-09-23T07:38:24.291Z,16.27
2022-09-23T07:40:50.836Z,16.27
2022-09-23T07:43:17.239Z,16.28
2022-09-23T07:45:43.715Z,16.25
2022-09-23T07:48:10.383Z,16.24
2022-09-23T07:50:39.200Z,16.26
2022-09-23T07:53:05.642Z,16.25
2022-09-23T07:55:32.075Z,16.24
2022-09-23T07:57:58.533Z,16.26
2022-09-23T08:00:25.003Z,16.27
2022-09-23T08:02:53.126Z,16.28
2022-09-23T08:05:19.905Z,16.26
2022-09-23T08:07:46.318Z,16.28
2022-09-23T08:10:12.760Z,16.26
2022-09-23T08:12:39.263Z,16.27
2022-09-23T08:15:06.267Z,16.27
2022-09-23T08:17:32.715Z,16.27
2022-09-23T08:19:59.164Z,16.27
2022-09-23T08:22:25.715Z,16.23
2022-09-23T08:24:54.053Z,16.29
2022-09-23T08:27:22.188Z,16.33
2022-09-23T08:29:48.614Z,16.34
2022-09-23T08:32:15.133Z,16.37
2022-09-23T08:34:41.577Z,16.35
2022-09-23T08:37:11.345Z,16.40
2022-09-23T08:39:37.795Z,16.40
2022-09-23T08:42:32.096Z,16.46
2022-09-23T08:45:04.599Z,16.46
2022-09-23T08:47:43.122Z,16.55
2022-09-23T08:50:24.161Z,16.44
2022-09-23T08:53:02.912Z,16.49
2022-09-23T08:55:41.464Z,16.60
2022-09-23T08:58:25.020Z,16.63
2022-09-23T09:01:16.555Z,16.64
2022-09-23T09:03:50.744Z,16.54
2022-09-23T09:06:45.636Z,16.67
2022-09-23T09:09:21.348Z,16.69
2022-09-23T09:11:52.349Z,16.61
2022-09-23T09:14:26.574Z,16.72
2022-09-23T09:17:01.507Z,16.76
2022-09-23T09:19:49.934Z,16.68
2022-09-23T09:22:22.658Z,16.79
2022-09-23T09:24:49.685Z,16.81
2022-09-23T09:27:16.339Z,16.84
2022-09-23T09:29:46.420Z,16.91
2022-09-23T09:32:18.681Z,16.96
2022-09-23T09:35:01.016Z,16.87
2022-09-23T09:37:39.180Z,16.99
2022-09-23T09:40:08.079Z,17.02
2022-09-23T09:42:40.356Z,17.03
2022-09-23T09:45:19.729Z,16.95
2022-09-23T09:48:00.208Z,17.07
2022-09-23T09:50:41.911Z,17.09
2022-09-23T09:53:24.842Z,17.12
2022-09-23T09:56:10.942Z,17.15
2022-09-23T09:58:55.402Z,17.12
2022-09-23T10:01:29.191Z,17.25
2022-09-23T10:03:59.486Z,17.35
2022-09-23T10:06:29.840Z,17.33
2022-09-23T10:09:08.509Z,17.53
2022-09-23T10:11:35.461Z,17.59
2022-09-23T10:14:17.729Z,17.71
2022-09-23T10:16:46.175Z,17.82
2022-09-23T10:19:26.954Z,17.90
2022-09-23T10:21:59.544Z,17.96
2022-09-23T10:24:32.231Z,18.00
2022-09-23T10:27:10.385Z,17.93
2022-09-23T10:29:39.349Z,18.12
2022-09-23T10:32:26.084Z,18.06
2022-09-23T10:35:17.492Z,18.21
2022-09-23T10:37:51.409Z,18.22
2022-09-23T10:40:30.096Z,18.23
2022-09-23T10:43:20.017Z,18.09
2022-09-23T10:45:49.474Z,18.08
2022-09-23T10:48:30.858Z,18.18
2022-09-23T10:50:59.460Z,18.16
2022-09-23T10:53:53.301Z,18.21
2022-09-23T10:56:30.370Z,18.21
2022-09-23T10:59:05.918Z,18.25
2022-09-23T11:01:43.741Z,18.28
2022-09-23T11:04:19.216Z,18.30
2022-09-23T11:07:22.388Z,18.32
2022-09-23T11:10:18.439Z,18.36
2022-09-23T11:13:43.380Z,18.38
2022-09-23T11:16:19.149Z,18.46
2022-09-23T11:19:07.525Z,18.52
2022-09-23T11:22:24.915Z,18.58
2022-09-23T11:25:00.281Z,18.67
2022-09-23T11:27:43.927Z,18.74
2022-09-23T11:30:16.205Z,18.81
2022-09-23T11:33:26.298Z,18.91
2022-09-23T11:35:58.912Z,19.01
2022-09-23T11:38:42.905Z,19.06
2022-09-23T11:41:12.133Z,19.14
2022-09-23T11:43:41.053Z,19.09
2022-09-23T11:46:13.516Z,19.27
2022-09-23T11:48:47.905Z,19.22
2022-09-23T11:51:14.283Z,19.33
2022-09-23T11:53:43.186Z,19.33
2022-09-23T11:56:35.031Z,19.36
2022-09-23T11:59:30.621Z,19.56
2022-09-23T12:02:36.345Z,19.68
2022-09-23T12:05:11.733Z,19.72
2022-09-23T12:07:57.463Z,19.76
2022-09-23T12:10:36.083Z,19.79
2022-09-23T12:13:33.885Z,19.82
2022-09-23T12:16:24.832Z,19.89
2022-09-23T12:19:28.789Z,19.89
2022-09-23T12:22:04.482Z,19.94
2022-09-23T12:25:09.572Z,20.01
2022-09-23T12:27:45.004Z,20.09
2022-09-23T12:30:27.975Z,20.17
2022-09-23T12:33:25.829Z,20.15
2022-09-23T12:35:54.391Z,20.24
2022-09-23T12:38:25.695Z,20.45
2022-09-23T12:40:56.324Z,20.55
2022-09-23T12:43:34.487Z,20.62
2022-09-23T12:46:24.698Z,20.63
2022-09-23T12:48:54.197Z,20.72
2022-09-23T12:51:21.913Z,20.71
2022-09-23T12:53:48.356Z,20.73
2022-09-23T12:56:16.141Z,20.73
2022-09-23T12:58:42.645Z,20.75
2022-09-23T13:01:15.412Z,20.75
2022-09-23T13:03:46.071Z,20.67
2022-09-23T13:06:12.571Z,20.75
2022-09-23T13:08:41.898Z,20.66
2022-09-23T13:11:29.146Z,20.66
2022-09-23T13:13:58.667Z,20.63
2022-09-23T13:16:40.732Z,20.67
2022-09-23T13:19:27.151Z,20.69
2022-09-23T13:21:53.583Z,20.70
2022-09-23T13:24:22.746Z,20.71
2022-09-23T13:27:03.241Z,20.66
2022-09-23T13:30:05.799Z,20.86
2022-09-23T13:32:40.773Z,21.00
2022-09-23T13:35:13.378Z,21.11
2022-09-23T13:37:47.045Z,21.21
2022-09-23T13:40:20.833Z,21.22
2022-09-23T13:43:03.789Z,21.26
2022-09-23T13:45:31.717Z,21.23
2022-09-23T13:48:04.102Z,21.21
2022-09-23T13:50:34.867Z,21.26
2022-09-23T13:53:02.658Z,21.20
2022-09-23T13:55:32.193Z,21.16
2022-09-23T13:58:00.798Z,21.16
2022-09-23T14:00:31.961Z,21.15
2022-09-23T14:02:58.326Z,21.17
2022-09-23T14:05:26.888Z,21.18
2022-09-23T14:07:55.825Z,21.23
2022-09-23T14:10:24.675Z,21.25
2022-09-23T14:12:52.577Z,21.20
2022-09-23T14:15:21.312Z,21.15
2022-09-23T14:17:52.007Z,21.21
2022-09-23T14:20:21.326Z,21.20
2022-09-23T14:22:47.950Z,21.27
2022-09-23T14:25:16.580Z,21.18
2022-09-23T14:27:44.724Z,21.25
2022-09-23T14:30:16.189Z,21.20
2022-09-23T14:32:43.117Z,21.19
2022-09-23T14:35:25.807Z,21.20
2022-09-23T14:37:58.202Z,21.20
2022-09-23T14:40:28.747Z,21.25
2022-09-23T14:42:55.191Z,21.32
2022-09-23T14:45:25.044Z,21.26
2022-09-23T14:47:58.739Z,21.36
2022-09-23T14:50:28.452Z,21.35
2022-09-23T14:52:54.927Z,21.33
2022-09-23T14:55:21.694Z,21.31
2022-09-23T14:57:48.226Z,21.28
2022-09-23T15:00:19.863Z,21.27
2022-09-23T15:03:02.527Z,21.25
2022-09-23T15:05:42.156Z,21.23
2022-09-23T15:08:11.949Z,21.24
2022-09-23T15:10:39.931Z,21.17
2022-09-23T15:13:19.243Z,21.26
2022-09-23T15:15:45.978Z,21.28
2022-09-23T15:18:22.895Z,21.18
2022-09-23T15:20:50.707Z,21.15
2022-09-23T15:23:47.920Z,21.09
2022-09-23T15:26:17.415Z,21.09
2022-09-23T15:28:44.968Z,21.14
2022-09-23T15:31:16.334Z,21.09
2022-09-23T15:33:46.858Z,21.05
2022-09-23T15:36:20.261Z,20.98
2022-09-23T15:38:47.503Z,20.95
2022-09-23T15:41:15.349Z,20.79
2022-09-23T15:43:41.822Z,20.84
2022-09-23T15:46:20.496Z,20.71
2022-09-23T15:48:59.288Z,20.65
2022-09-23T15:51:27.384Z,20.71
2022-09-23T15:53:54.481Z,20.67
2022-09-23T15:56:21.864Z,20.63
2022-09-23T15:58:48.885Z,20.58
2022-09-23T16:01:27.013Z,20.44
2022-09-23T16:03:54.017Z,20.49
2022-09-23T16:06:20.436Z,20.46
2022-09-23T16:08:46.969Z,20.43
2022-09-23T16:11:18.515Z,20.38
2022-09-23T16:13:45.380Z,20.37
2022-09-23T16:16:11.901Z,20.32
2022-09-23T16:18:38.437Z,20.33
2022-09-23T16:21:05.751Z,20.29
2022-09-23T16:23:37.058Z,20.24
2022-09-23T16:26:05.274Z,20.24
2022-09-23T16:28:31.701Z,20.32
2022-09-23T16:30:58.170Z,20.32
2022-09-23T16:33:24.831Z,20.33
2022-09-23T16:35:51.326Z,20.31
2022-09-23T16:38:17.736Z,20.31
2022-09-23T16:40:47.185Z,20.28
2022-09-23T16:43:13.876Z,20.25
2022-09-23T16:45:40.381Z,20.20
2022-09-23T16:48:06.858Z,20.16
2022-09-23T16:50:34.316Z,20.13
2022-09-23T16:53:00.779Z,20.09
2022-09-23T16:55:27.534Z,20.09
2022-09-23T16:57:54.653Z,20.31
2022-09-23T17:00:22.168Z,20.43
2022-09-23T17:02:48.608Z,20.46
2022-09-23T17:05:15.068Z,20.37
2022-09-23T17:07:41.546Z,20.27
2022-09-23T17:10:08.512Z,20.17
2022-09-23T17:12:34.963Z,20.07
2022-09-23T17:15:04.960Z,19.94
2022-09-23T17:17:34.221Z,19.87
2022-09-23T17:20:00.864Z,19.80
2022-09-23T17:22:29.800Z,19.59
2022-09-23T17:24:56.215Z,19.61
2022-09-23T17:27:22.644Z,19.50
2022-09-23T17:29:49.063Z,19.41
2022-09-23T17:32:15.582Z,19.32
2022-09-23T17:34:42.286Z,19.22
2022-09-23T17:37:09.633Z,19.12
2022-09-23T17:39:36.130Z,19.01
2022-09-23T17:42:02.613Z,18.91
2022-09-23T17:44:29.399Z,18.80
2022-09-23T17:46:55.866Z,18.71
2022-09-23T17:49:22.289Z,18.61
2022-09-23T17:51:48.750Z,18.51
2022-09-23T17:54:15.326Z,18.42
2022-09-23T17:56:42.196Z,18.31
2022-09-23T17:59:12.102Z,18.18
2022-09-23T18:01:39.100Z,18.12
2022-09-23T18:04:05.808Z,18.00
2022-09-23T18:06:35.500Z,17.92
2022-09-23T18:09:04.242Z,17.82
2022-09-23T18:11:34.015Z,17.56
2022-09-23T18:14:03.676Z,17.62
2022-09-23T18:16:34.469Z,17.56
2022-09-23T18:19:02.667Z,17.48
2022-09-23T18:21:37.403Z,17.30
2022-09-23T18:24:30.849Z,17.32
2022-09-23T18:26:50.717Z,17.24
2022-09-23T18:29:17.424Z,17.18
2022-09-23T18:31:44.002Z,17.11
2022-09-23T18:34:12.377Z,16.98
2022-09-23T18:36:38.908Z,16.95
2022-09-23T18:39:05.400Z,16.87
2022-09-23T18:41:31.884Z,16.79
2022-09-23T18:43:58.376Z,16.73
2022-09-23T18:46:29.347Z,16.64
2022-09-23T18:48:56.126Z,16.61
2022-09-23T18:51:23.515Z,16.54
2022-09-23T18:53:49.974Z,16.48
2022-09-23T18:56:18.528Z,16.33
2022-09-23T18:58:49.212Z,16.33
2022-09-23T19:01:16.755Z,16.25
2022-09-23T19:03:43.715Z,16.21
2022-09-23T19:06:12.889Z,16.15
2022-09-23T19:08:39.970Z,16.09
2022-09-23T19:11:08.507Z,15.93
2022-09-23T19:13:35.754Z,15.97
2022-09-23T19:16:03.830Z,15.91
2022-09-23T19:18:31.269Z,15.79
2022-09-23T19:20:58.005Z,15.78
2022-09-23T19:23:24.483Z,15.68
2022-09-23T19:25:50.950Z,15.64
2022-09-23T19:28:17.423Z,15.56
2022-09-23T19:30:43.840Z,15.49
2022-09-23T19:33:10.319Z,15.41
2022-09-23T19:35:45.901Z,15.23
2022-09-23T19:38:12.450Z,15.25
2022-09-23T19:40:38.914Z,15.19
2022-09-23T19:43:05.429Z,15.10
2022-09-23T19:45:31.866Z,15.05
2022-09-23T19:47:58.311Z,14.96
2022-09-23T19:50:24.796Z,14.92
2022-09-23T19:52:51.306Z,14.84
2022-09-23T19:55:19.055Z,14.68
2022-09-23T19:57:45.986Z,14.71
2022-09-23T20:00:14.256Z,14.70
2022-09-23T20:02:41.899Z,14.64
2022-09-23T20:05:11.897Z,14.61
2022-09-23T20:07:40.314Z,14.56
2022-09-23T20:10:08.515Z,14.52
2022-09-23T20:12:35.088Z,14.49
2022-09-23T20:15:01.559Z,14.45
2022-09-23T20:17:27.997Z,14.44
2022-09-23T20:19:54.451Z,14.41
2022-09-23T20:22:20.894Z,14.35
2022-09-23T20:24:47.432Z,14.31
2022-09-23T20:27:13.858Z,14.29
2022-09-23T20:29:40.338Z,14.26
2022-09-23T20:32:06.779Z,14.22
2022-09-23T20:34:34.105Z,14.17
2022-09-23T20:37:00.605Z,14.13
2022-09-23T20:39:27.354Z,14.08
2022-09-23T20:41:53.797Z,14.05
2022-09-23T20:44:20.296Z,14.01
2022-09-23T20:46:48.758Z,13.97
2022-09-23T20:49:16.573Z,13.93
2022-09-23T20:51:49.671Z,13.88
2022-09-23T20:54:17.351Z,13.83
2022-09-23T20:56:43.799Z,13.82
2022-09-23T20:59:10.403Z,13.78
2022-09-23T21:01:36.947Z,13.75
2022-09-23T21:04:04.457Z,13.71
2022-09-23T21:06:31.094Z,13.69
2022-09-23T21:08:57.550Z,13.66
2022-09-23T21:11:23.976Z,13.61
2022-09-23T21:13:51.663Z,13.58
2022-09-23T21:16:20.060Z,13.44
2022-09-23T21:18:46.719Z,13.50
2022-09-23T21:21:13.172Z,13.47
2022-09-23T21:23:40.565Z,13.41
2022-09-23T21:26:09.449Z,13.40
2022-09-23T21:28:37.957Z,13.28
2022-09-23T21:31:07.263Z,13.21
2022-09-23T21:33:34.245Z,13.30
2022-09-23T21:36:00.774Z,13.28
2022-09-23T21:38:27.180Z,13.25
2022-09-23T21:41:01.186Z,13.22
2022-09-23T21:43:30.841Z,13.18
2022-09-23T21:45:58.916Z,13.14
2022-09-23T21:48:36.615Z,13.09
2022-09-23T21:51:08.540Z,13.06
2022-09-23T21:53:35.950Z,13.03
2022-09-23T21:56:09.357Z,13.03
2022-09-23T21:58:37.699Z,12.92
2022-09-23T22:01:31.270Z,12.91
2022-09-23T22:04:00.322Z,12.87
2022-09-23T22:06:28.228Z,12.94
2022-09-23T22:08:58.117Z,12.84
2022-09-23T22:11:26.600Z,12.92
2022-09-23T22:13:53.042Z,12.87
2022-09-23T22:16:19.545Z,12.90
2022-09-23T22:18:46.060Z,12.87
2022-09-23T22:21:12.504Z,12.89
2022-09-23T22:23:38.907Z,12.87
2022-09-23T22:26:05.403Z,12.89
2022-09-23T22:28:32.781Z,12.87
2022-09-23T22:30:59.386Z,12.87
2022-09-23T22:33:25.829Z,12.86
2022-09-23T22:35:52.265Z,12.86
2022-09-23T22:38:18.691Z,12.84
2022-09-23T22:40:45.194Z,12.84
2022-09-23T22:43:11.668Z,12.76
2022-09-23T22:45:38.144Z,12.85
2022-09-23T22:48:04.865Z,12.84
2022-09-23T22:50:31.321Z,12.82
2022-09-23T22:52:57.774Z,12.82
2022-09-23T22:55:24.213Z,12.77
2022-09-23T22:57:50.669Z,12.80
2022-09-23T23:00:17.110Z,12.80
2022-09-23T23:02:43.533Z,12.78
2022-09-23T23:05:10.049Z,12.76
2022-09-23T23:07:36.517Z,12.76
2022-09-23T23:10:03.070Z,12.75
2022-09-23T23:12:29.487Z,12.69
2022-09-23T23:14:55.952Z,12.74
2022-09-23T23:17:22.393Z,12.73
2022-09-23T23:19:48.815Z,12.73
2022-09-23T23:22:15.327Z,12.73
2022-09-23T23:24:41.819Z,12.72
2022-09-23T23:27:08.252Z,12.71
2022-09-23T23:29:34.720Z,12.70
2022-09-23T23:32:01.291Z,12.69
2022-09-23T23:34:27.810Z,12.71
2022-09-23T23:36:54.269Z,12.68
2022-09-23T23:39:22.189Z,12.70
2022-09-23T23:41:51.653Z,12.68
2022-09-23T23:44:18.142Z,12.69
2022-09-23T23:46:44.610Z,12.69
2022-09-23T23:49:11.104Z,12.68
2022-09-23T23:51:37.589Z,12.69
2022-09-23T23:54:04.240Z,12.69
2022-09-23T23:56:30.860Z,12.70
2022-09-23T23:59:01.727Z,12.69
